Time;durP1;ratioP1;P1;durP2;ratioP2;P2;SDS_P1;SDS_P2;PMS_P1;PMS_P2;Temp;Humidity;BMP_temperature;BMP_pressure;BME280_temperature;BME280_humidity;BME280_pressure;Samples;Min_cycle;Max_cycle;Signal;HPM_P1;HPM_P2
2021/06/04 00:01:14;;;;;;;1.98;0.97;;;;;;;15.45;72.01;100750.27;462651;111;923039;-73
2021/06/04 00:02:18;;;;;;;0.96;0.96;;;;;;;15.44;71.98;100756.83;461957;112;923074;-74
2021/06/04 00:03:24;;;;;;;2.88;1.28;;;;;;;15.43;72.03;100755.19;462858;113;922938;-74
2021/06/04 00:04:28;;;;;;;1.28;1.04;;;;;;;15.43;72.05;100752.44;462835;113;922527;-75
2021/06/04 00:05:35;;;;;;;3.31;1.19;;;;;;;15.42;71.91;100750.77;464052;111;922900;-73
2021/06/04 00:06:40;;;;;;;1.58;1.11;;;;;;;15.40;71.89;100752.06;463517;112;930170;-74
2021/06/04 00:07:44;;;;;;;1.96;1.03;;;;;;;15.36;72.11;100754.48;462817;113;922826;-74
2021/06/04 00:08:49;;;;;;;0.96;0.91;;;;;;;15.34;72.19;100753.88;463665;113;930319;-72
2021/06/04 00:09:53;;;;;;;0.86;0.79;;;;;;;15.33;72.14;100756.85;462886;112;930165;-74
2021/06/04 00:11:00;;;;;;;1.39;1.06;;;;;;;15.30;72.24;100749.95;463595;111;923021;-74
2021/06/04 00:12:04;;;;;;;1.65;0.96;;;;;;;15.29;72.27;100753.77;453648;113;925385;-74
2021/06/04 00:13:20;;;;;;;1.55;0.99;;;;;;;15.27;72.28;100747.66;464687;111;922480;-74
2021/06/04 00:14:28;;;;;;;1.09;0.89;;;;;;;15.27;72.37;100755.09;462343;112;922877;-75
2021/06/04 00:15:31;;;;;;;1.89;1.02;;;;;;;15.27;72.48;100755.09;463505;111;923059;-73
2021/06/04 00:16:42;;;;;;;1.24;0.94;;;;;;;15.27;72.64;100750.41;463135;113;924032;-73
2021/06/04 00:17:53;;;;;;;1.21;1.01;;;;;;;15.37;72.53;100749.81;471656;110;948507;-74
2021/06/04 00:18:58;;;;;;;1.87;1.10;;;;;;;15.26;72.55;100751.52;461974;112;923395;-74
2021/06/04 00:20:06;;;;;;;1.96;1.17;;;;;;;15.25;72.61;100754.49;460320;111;925379;-75
2021/06/04 00:21:13;;;;;;;2.21;0.99;;;;;;;15.26;72.77;100757.01;460599;111;923288;-74
2021/06/04 00:22:22;;;;;;;3.13;1.07;;;;;;;15.26;72.77;100753.42;466261;112;923780;-73
2021/06/04 00:23:26;;;;;;;1.41;0.91;;;;;;;15.25;72.75;100751.75;467473;112;923541;-73
2021/06/04 00:24:33;;;;;;;2.81;1.00;;;;;;;15.27;72.76;100752.35;466543;112;923584;-75
2021/06/04 00:25:37;;;;;;;2.41;1.08;;;;;;;15.27;72.79;100757.84;467488;112;923039;-74
2021/06/04 00:26:44;;;;;;;1.92;1.01;;;;;;;15.29;72.82;100747.43;466517;112;924729;-74
2021/06/04 00:27:49;;;;;;;2.26;1.14;;;;;;;15.30;72.85;100757.34;467078;112;922900;-74
2021/06/04 00:28:53;;;;;;;1.15;0.99;;;;;;;15.32;72.79;100756.05;467697;112;922851;-74
2021/06/04 00:29:57;;;;;;;0.98;0.86;;;;;;;15.34;72.81;100756.62;467365;112;931508;-74
2021/06/04 00:31:02;;;;;;;1.01;0.94;;;;;;;15.35;72.74;100747.30;467755;111;924840;-75
2021/06/04 00:32:06;;;;;;;1.07;1.01;;;;;;;15.35;72.74;100747.30;467782;112;924058;-74
2021/06/04 00:33:12;;;;;;;1.33;0.99;;;;;;;15.37;72.71;100752.56;467500;112;932106;-75
2021/06/04 00:34:18;;;;;;;1.67;1.09;;;;;;;15.36;72.65;100748.98;466787;112;924029;-74
2021/06/04 00:35:22;;;;;;;2.45;1.01;;;;;;;15.38;72.60;100746.80;466535;112;924133;-74
2021/06/04 00:36:28;;;;;;;1.06;0.96;;;;;;;15.38;72.65;100755.05;466137;112;931672;-74
2021/06/04 00:37:31;;;;;;;1.81;1.14;;;;;;;15.38;72.65;100746.80;467724;112;924026;-75
2021/06/04 00:38:35;;;;;;;2.61;1.24;;;;;;;15.40;72.63;100755.66;467656;112;923741;-74
2021/06/04 00:39:40;;;;;;;2.74;1.58;;;;;;;15.40;72.57;100758.41;464697;112;924145;-73
2021/06/04 00:40:48;;;;;;;1.72;1.13;;;;;;;15.42;72.63;100759.00;466521;112;923052;-73
2021/06/04 00:42:02;;;;;;;0.91;0.91;;;;;;;15.42;72.61;100748.02;466751;112;924115;-74
2021/06/04 00:43:08;;;;;;;1.22;1.12;;;;;;;15.42;72.63;100747.17;466629;112;922597;-73
2021/06/04 00:44:12;;;;;;;2.49;1.35;;;;;;;15.42;72.62;100749.92;466653;112;924483;-73
2021/06/04 00:45:20;;;;;;;2.85;1.26;;;;;;;15.43;72.64;100746.11;466439;112;924066;-75
2021/06/04 00:46:27;;;;;;;2.88;1.39;;;;;;;15.43;72.63;100752.44;458350;114;923595;-73
2021/06/04 00:47:30;;;;;;;2.04;1.78;;;;;;;15.43;72.61;100748.86;447936;117;924156;-74
2021/06/04 00:48:36;;;;;;;2.10;1.30;;;;;;;15.43;72.68;100744.20;466701;112;924039;-74
2021/06/04 00:49:41;;;;;;;1.91;1.34;;;;;;;15.43;72.73;100757.09;466870;112;924051;-74
2021/06/04 00:51:01;;;;;;;1.57;1.22;;;;;;;15.44;72.81;100755.99;467878;112;922997;-74
2021/06/04 00:52:12;;;;;;;2.17;1.80;;;;;;;15.45;72.71;100752.17;465888;112;924055;-72
2021/06/04 00:53:19;;;;;;;1.53;1.34;;;;;;;15.45;72.70;100755.77;467143;112;922783;-74
2021/06/04 00:54:25;;;;;;;2.06;1.03;;;;;;;15.45;72.70;100755.77;456562;114;922801;-75
2021/06/04 00:55:28;;;;;;;0.83;0.83;;;;;;;15.47;72.70;100754.69;457481;112;922452;-74
2021/06/04 00:56:35;;;;;;;1.44;0.97;;;;;;;15.47;72.74;100752.78;468430;112;922611;-74
2021/06/04 00:57:40;;;;;;;1.56;1.10;;;;;;;15.48;72.73;100751.70;458580;114;923526;-75
2021/06/04 00:58:47;;;;;;;1.02;0.96;;;;;;;15.50;72.73;100760.52;459712;112;922812;-75
2021/06/04 01:00:00;;;;;;;1.01;0.90;;;;;;;15.52;72.68;100758.41;467835;112;922844;-74
2021/06/04 01:00:59;;;;;;;1.77;1.25;;;;;;;15.54;72.66;100749.93;467405;112;922684;-74
2021/06/04 01:02:07;;;;;;;2.64;1.19;;;;;;;15.56;72.59;100750.50;467510;112;922532;-76
2021/06/04 01:03:11;;;;;;;3.15;1.18;;;;;;;15.57;72.50;100750.27;466125;112;922483;-75
2021/06/04 01:04:18;;;;;;;1.46;1.03;;;;;;;15.58;72.46;100745.61;465626;112;923044;-73
2021/06/04 01:05:25;;;;;;;2.42;1.16;;;;;;;15.59;72.40;100745.37;466533;112;922566;-73
2021/06/04 01:06:40;;;;;;;1.15;0.94;;;;;;;15.60;72.37;100746.22;466363;112;923061;-75
2021/06/04 01:08:04;;;;;;;2.42;1.09;;;;;;;15.59;72.39;100742.63;466156;112;922360;-71
2021/06/04 01:09:29;;;;;;;1.84;1.70;;;;;;;15.59;72.34;100748.13;465995;112;922476;-75
2021/06/04 01:10:56;;;;;;;6.35;5.66;;;;;;;15.60;72.37;100744.27;466498;112;923083;-73
2021/06/04 01:12:16;;;;;;;3.19;2.94;;;;;;;15.59;72.36;100748.13;468714;112;922201;-73
2021/06/04 01:13:32;;;;;;;1.44;1.32;;;;;;;15.60;72.35;100746.22;468198;112;922676;-75
2021/06/04 01:14:48;;;;;;;1.38;1.27;;;;;;;15.59;72.33;100741.78;468275;112;922609;-74
2021/06/04 01:16:01;;;;;;;1.00;1.00;;;;;;;15.59;72.37;100742.63;469158;112;922006;-73
2021/06/04 01:17:08;;;;;;;1.04;0.92;;;;;;;15.59;72.39;100745.37;467736;112;922069;-75
2021/06/04 01:18:16;;;;;;;0.81;0.77;;;;;;;15.59;72.35;100744.53;465167;112;922896;-72
2021/06/04 01:19:48;;;;;;;1.20;1.03;;;;;;;15.59;72.36;100750.88;456891;113;924079;-75
2021/06/04 01:21:02;;;;;;;0.94;0.90;;;;;;;15.70;72.36;100747.25;471272;110;946993;-74
2021/06/04 01:22:14;;;;;;;2.44;1.01;;;;;;;15.59;72.27;100753.62;461735;112;926301;-74
2021/06/04 01:24:05;;;;;;;1.72;0.89;;;;;;;15.68;72.35;100752.14;470445;110;946866;-73
2021/06/04 01:25:13;;;;;;;1.14;0.75;;;;;;;15.58;72.36;100751.11;463288;114;924076;-74
2021/06/04 01:26:29;;;;;;;2.63;0.87;;;;;;;15.56;72.39;100747.75;463312;113;923992;-73
2021/06/04 01:27:38;;;;;;;1.63;0.98;;;;;;;15.56;72.44;100756.00;453671;113;922644;-75
2021/06/04 01:28:46;;;;;;;0.84;0.79;;;;;;;15.56;72.49;100754.09;456425;115;922460;-75
2021/06/04 01:29:53;;;;;;;2.50;1.09;;;;;;;15.57;72.47;100758.52;455331;114;923315;-76
2021/06/04 01:31:09;;;;;;;1.42;0.84;;;;;;;15.59;72.49;100761.03;456095;115;925493;-73
2021/06/04 01:32:20;;;;;;;1.29;0.81;;;;;;;15.58;72.54;100749.20;455456;115;924070;-74
2021/06/04 01:33:28;;;;;;;1.16;0.99;;;;;;;15.61;72.49;100756.10;456475;115;922942;-76
2021/06/04 01:34:35;;;;;;;0.72;0.63;;;;;;;15.60;72.43;100749.77;447322;117;922679;-73
2021/06/04 01:35:44;;;;;;;1.44;1.02;;;;;;;15.62;72.39;100744.03;447721;116;924144;-74
2021/06/04 01:36:53;;;;;;;1.19;1.09;;;;;;;15.61;72.44;100748.69;455392;115;924100;-75
2021/06/04 01:38:00;;;;;;;1.41;0.89;;;;;;;15.62;72.41;100746.78;456156;115;924849;-74
2021/06/04 01:39:08;;;;;;;1.43;1.02;;;;;;;15.63;72.41;100748.45;456184;114;923511;-73
2021/06/04 01:40:21;;;;;;;1.29;1.10;;;;;;;15.64;72.42;100750.14;456530;115;924120;-76
2021/06/04 01:41:33;;;;;;;1.12;1.02;;;;;;;15.75;72.41;100747.35;469955;110;949154;-74
2021/06/04 01:42:41;;;;;;;1.56;1.12;;;;;;;15.64;72.45;100748.23;458616;114;923912;-74
2021/06/04 01:43:49;;;;;;;1.04;0.80;;;;;;;15.65;72.44;100741.66;458050;114;925755;-69
2021/06/04 01:45:01;;;;;;;1.11;0.99;;;;;;;15.66;72.41;100747.95;456494;114;924022;-72
2021/06/04 01:46:12;;;;;;;1.36;0.91;;;;;;;15.65;72.33;100741.66;458177;114;922504;-71
2021/06/04 01:47:30;;;;;;;3.02;2.82;;;;;;;15.64;72.25;100745.48;456113;114;924062;-71
2021/06/04 01:48:38;;;;;;;2.96;2.70;;;;;;;15.64;72.30;100747.39;440607;118;927186;-74
2021/06/04 01:49:47;;;;;;;2.02;1.55;;;;;;;15.63;72.36;100751.20;456015;114;923184;-74
2021/06/04 01:51:00;;;;;;;1.29;1.20;;;;;;;15.62;72.33;100744.88;456687;114;922460;-73
2021/06/04 01:52:24;;;;;;;2.39;1.06;;;;;;;15.62;72.35;100746.78;455675;114;922863;-75
2021/06/04 01:53:38;;;;;;;1.09;0.90;;;;;;;15.61;72.34;100748.69;456462;114;922475;-75
2021/06/04 01:54:52;;;;;;;1.12;0.90;;;;;;;15.62;72.39;100747.62;456613;114;922950;-75
2021/06/04 01:56:00;;;;;;;0.88;0.77;;;;;;;15.61;72.42;100745.11;443164;117;924555;-74
2021/06/04 01:57:09;;;;;;;1.07;0.95;;;;;;;15.62;72.49;100749.53;449302;114;924191;-73
2021/06/04 01:58:23;;;;;;;3.42;1.00;;;;;;;15.61;72.42;100750.61;457014;114;924045;-74
2021/06/04 01:59:31;;;;;;;1.32;1.00;;;;;;;15.60;72.32;100748.96;457101;114;922645;-75
2021/06/04 02:00:47;;;;;;;0.97;0.71;;;;;;;15.59;72.43;100747.28;455811;114;922713;-72
2021/06/04 02:01:53;;;;;;;3.23;1.08;;;;;;;15.58;72.56;100751.11;456802;114;923158;-73
2021/06/04 02:02:57;;;;;;;1.78;0.94;;;;;;;15.58;72.57;100753.85;456798;114;924123;-74
2021/06/04 02:04:09;;;;;;;1.74;1.02;;;;;;;15.58;72.57;100753.85;456129;114;924149;-72
2021/06/04 02:05:18;;;;;;;1.58;0.87;;;;;;;15.57;72.49;100761.27;455944;114;925458;-74
2021/06/04 02:06:22;;;;;;;2.32;1.01;;;;;;;15.56;72.52;100758.75;458895;114;922647;-73
2021/06/04 02:07:30;;;;;;;1.08;1.02;;;;;;;15.55;72.53;100759.85;449175;116;922498;-75
2021/06/04 02:08:37;;;;;;;1.45;1.30;;;;;;;15.52;72.59;100763.91;450459;114;922399;-74
2021/06/04 02:09:44;;;;;;;1.51;1.19;;;;;;;15.52;72.68;100760.32;458610;114;922440;-74
2021/06/04 02:10:53;;;;;;;0.75;0.74;;;;;;;15.53;72.81;100759.25;456667;114;922769;-75
2021/06/04 02:11:57;;;;;;;1.43;0.93;;;;;;;15.52;72.79;100763.91;456734;114;922769;-74
2021/06/04 02:13:05;;;;;;;1.67;0.80;;;;;;;15.54;72.77;100766.42;456268;114;922927;-76
2021/06/04 02:14:14;;;;;;;1.26;0.91;;;;;;;15.55;72.71;100765.34;454876;114;922574;-74
2021/06/04 02:15:21;;;;;;;1.98;0.86;;;;;;;15.54;72.75;100764.52;456087;114;922995;-74
2021/06/04 02:16:46;;;;;;;1.38;0.71;;;;;;;15.55;72.64;100763.41;456752;114;922713;-74
2021/06/04 02:17:56;;;;;;;0.88;0.82;;;;;;;15.56;72.63;100764.24;447315;116;923162;-74
2021/06/04 02:19:08;;;;;;;0.81;0.81;;;;;;;15.55;72.74;100757.10;448139;114;922490;-75
2021/06/04 02:20:30;;;;;;;1.79;1.17;;;;;;;15.55;72.63;100757.10;454877;114;922630;-75
2021/06/04 02:21:42;;;;;;;3.48;0.97;;;;;;;15.54;72.76;100760.92;456538;114;923136;-74
2021/06/04 02:22:52;;;;;;;1.03;0.90;;;;;;;15.54;72.82;100758.17;456818;114;922538;-75
2021/06/04 02:24:15;;;;;;;0.97;0.73;;;;;;;15.53;72.85;100762.00;457903;114;922865;-74
2021/06/04 02:25:22;;;;;;;0.66;0.64;;;;;;;15.53;72.87;100765.58;457159;114;922832;-74
2021/06/04 02:26:37;;;;;;;4.06;3.70;;;;;;;15.52;72.79;100758.41;458142;114;923032;-74
2021/06/04 02:27:50;;;;;;;3.31;2.85;;;;;;;15.53;72.83;100768.33;457792;114;922512;-74
2021/06/04 02:29:18;;;;;;;2.56;2.37;;;;;;;15.51;72.86;100758.61;457193;114;924098;-74
2021/06/04 02:30:48;;;;;;;1.60;1.14;;;;;;;15.51;72.88;100762.20;457948;114;923073;-73
2021/06/04 02:32:07;;;;;;;1.09;0.94;;;;;;;15.52;72.94;100760.32;458557;114;922715;-75
2021/06/04 02:33:15;;;;;;;1.68;0.90;;;;;;;15.52;72.99;100758.41;458973;114;924042;-74
2021/06/04 02:34:26;;;;;;;1.43;0.79;;;;;;;15.53;73.00;100756.50;456561;114;924017;-74
2021/06/04 02:35:36;;;;;;;0.61;0.61;;;;;;;15.52;72.92;100758.41;454741;113;922931;-75
2021/06/04 02:37:08;;;;;;;1.74;1.06;;;;;;;15.62;72.89;100746.78;480739;108;948224;-74
2021/06/04 02:38:36;;;;;;;1.22;0.84;;;;;;;15.51;72.90;100753.95;472334;110;926326;-72
2021/06/04 02:39:46;;;;;;;1.20;0.98;;;;;;;15.51;72.84;100761.36;473747;110;924094;-75
2021/06/04 02:40:54;;;;;;;1.88;0.96;;;;;;;15.51;72.84;100755.86;464183;112;922707;-74
2021/06/04 02:42:04;;;;;;;2.31;1.26;;;;;;;15.49;72.91;100758.04;474161;110;930544;-73
2021/06/04 02:43:33;;;;;;;1.34;0.92;;;;;;;15.49;72.95;100761.63;473718;110;924073;-75
2021/06/04 02:44:56;;;;;;;0.93;0.90;;;;;;;15.49;72.96;100758.04;472781;110;924432;-74
2021/06/04 02:46:09;;;;;;;1.68;1.45;;;;;;;15.50;72.99;100755.03;473562;109;925208;-74
2021/06/04 02:47:19;;;;;;;1.03;0.81;;;;;;;15.51;72.97;100761.36;472709;110;922608;-75
2021/06/04 02:48:25;;;;;;;1.46;1.36;;;;;;;15.53;72.99;100759.25;472081;110;925672;-74
2021/06/04 02:49:29;;;;;;;1.23;1.19;;;;;;;15.54;72.98;100760.92;473062;110;932869;-75
2021/06/04 02:51:04;;;;;;;2.82;1.64;;;;;;;15.55;72.88;100762.60;472471;110;922949;-75
2021/06/04 02:52:26;;;;;;;1.71;0.86;;;;;;;15.54;72.85;100761.77;471131;110;924103;-74
2021/06/04 02:53:35;;;;;;;2.10;1.11;;;;;;;15.51;72.80;100758.61;471944;110;924044;-73
2021/06/04 02:54:45;;;;;;;1.63;1.02;;;;;;;15.59;72.92;100763.77;470801;110;949144;-75
2021/06/04 02:56:13;;;;;;;2.26;1.01;;;;;;;15.45;72.92;100754.92;463469;114;923778;-73
2021/06/04 02:57:23;;;;;;;1.32;0.68;;;;;;;15.42;72.99;100750.77;461237;112;930544;-76
2021/06/04 02:58:26;;;;;;;1.24;0.87;;;;;;;15.40;73.16;100754.81;461431;112;922531;-75
2021/06/04 02:59:33;;;;;;;0.89;0.87;;;;;;;15.39;73.21;100753.98;461453;112;924165;-74
2021/06/04 03:00:41;;;;;;;2.47;0.97;;;;;;;15.38;73.26;100757.80;462664;112;922903;-75
2021/06/04 03:02:13;;;;;;;0.84;0.62;;;;;;;15.38;73.43;100749.55;460922;112;922986;-75
2021/06/04 03:03:16;;;;;;;;;;;;;;;15.40;73.49;100755.66;464465;112;922857;-75
2021/06/04 03:04:21;;;;;;;0.95;0.69;;;;;;;15.42;73.45;100753.52;462452;112;924086;-75
2021/06/04 03:05:28;;;;;;;0.72;0.72;;;;;;;15.42;73.38;100760.92;462562;112;922982;-75
2021/06/04 03:06:36;;;;;;;0.92;0.74;;;;;;;15.39;73.24;100758.63;462101;112;923009;-75
2021/06/04 03:07:42;;;;;;;0.91;0.70;;;;;;;15.36;73.42;100754.48;462704;112;923114;-75
2021/06/04 03:08:49;;;;;;;0.83;0.61;;;;;;;15.35;73.59;100754.70;462719;112;922490;-76
2021/06/04 03:09:55;;;;;;;0.73;0.73;;;;;;;15.36;73.60;100757.22;456564;114;922547;-75
2021/06/04 03:11:01;;;;;;;1.50;0.69;;;;;;;15.37;73.73;100761.64;456506;114;922595;-74
2021/06/04 03:12:09;;;;;;;1.21;0.94;;;;;;;15.40;73.67;100754.81;460798;112;924004;-74
2021/06/04 03:13:16;;;;;;;0.96;0.81;;;;;;;15.43;73.65;100760.69;461464;112;924116;-73
2021/06/04 03:14:21;;;;;;;1.08;0.95;;;;;;;15.43;73.53;100765.34;462024;112;922749;-75
2021/06/04 03:15:32;;;;;;;1.32;0.86;;;;;;;15.43;73.55;100759.84;460912;112;922643;-74
2021/06/04 03:16:40;;;;;;;1.14;0.92;;;;;;;15.45;73.55;100760.42;462832;112;930123;-75
2021/06/04 03:17:45;;;;;;;0.81;0.78;;;;;;;15.47;73.56;100766.52;459715;112;923220;-76
2021/06/04 03:18:56;;;;;;;0.92;0.79;;;;;;;15.50;73.60;100765.18;461310;112;925667;-75
2021/06/04 03:19:59;;;;;;;1.37;1.10;;;;;;;15.53;73.52;100767.49;460602;112;922445;-73
2021/06/04 03:21:07;;;;;;;2.57;1.73;;;;;;;15.53;73.58;100767.49;462217;113;922543;-76
2021/06/04 03:22:29;;;;;;;2.33;1.29;;;;;;;15.57;73.53;100765.92;461191;112;922846;-74
2021/06/04 03:23:38;;;;;;;1.28;0.97;;;;;;;15.60;73.43;100773.70;462761;112;922652;-75
2021/06/04 03:24:44;;;;;;;2.61;1.32;;;;;;;15.62;73.26;100764.11;460148;112;923791;-75
2021/06/04 03:25:53;;;;;;;1.27;0.90;;;;;;;15.65;73.15;100771.05;462415;112;924044;-74
2021/06/04 03:26:59;;;;;;;1.20;1.09;;;;;;;15.67;73.16;100761.47;460176;112;922514;-75
2021/06/04 03:28:04;;;;;;;1.64;1.08;;;;;;;15.70;73.07;100760.16;462046;112;922870;-75
2021/06/04 03:29:12;;;;;;;1.90;0.91;;;;;;;15.74;73.01;100764.08;461180;112;923091;-75
2021/06/04 03:30:21;;;;;;;1.05;0.86;;;;;;;15.78;72.99;100762.50;462418;112;923060;-75
2021/06/04 03:31:29;;;;;;;1.56;0.89;;;;;;;15.81;72.96;100762.87;453707;114;923064;-75
2021/06/04 03:32:34;;;;;;;0.76;0.76;;;;;;;15.85;72.91;100769.54;446494;114;922687;-75
2021/06/04 03:33:39;;;;;;;1.88;0.76;;;;;;;15.88;72.82;100765.45;450105;114;922689;-74
2021/06/04 03:34:45;;;;;;;1.32;0.82;;;;;;;15.89;72.65;100758.87;454090;114;922558;-75
2021/06/04 03:35:50;;;;;;;1.71;0.82;;;;;;;15.91;72.41;100766.89;458780;114;924459;-75
2021/06/04 03:36:57;;;;;;;3.13;1.71;;;;;;;15.92;72.36;100768.56;461948;112;922890;-73
2021/06/04 03:38:01;;;;;;;3.91;2.17;;;;;;;15.93;72.29;100771.08;461315;112;923515;-75
2021/06/04 03:39:09;;;;;;;1.89;1.62;;;;;;;15.96;72.27;100775.23;461969;112;922578;-74
2021/06/04 03:40:17;;;;;;;1.99;1.16;;;;;;;15.98;72.19;100773.08;452134;114;923228;-74
2021/06/04 03:41:25;;;;;;;1.18;0.87;;;;;;;15.99;72.06;100770.06;441382;117;923036;-74
2021/06/04 03:42:30;;;;;;;1.42;0.94;;;;;;;16.00;71.86;100770.91;449525;114;924521;-75
2021/06/04 03:43:35;;;;;;;3.35;1.09;;;;;;;15.99;71.95;100769.27;461003;112;922479;-74
2021/06/04 03:44:42;;;;;;;2.50;0.97;;;;;;;16.00;71.98;100768.16;460912;112;931760;-72
2021/06/04 03:45:47;;;;;;;2.06;1.09;;;;;;;16.00;72.04;100773.66;453958;114;924039;-74
2021/06/04 03:46:51;;;;;;;1.49;1.07;;;;;;;16.01;72.03;100767.08;455380;114;926580;-76
2021/06/04 03:47:56;;;;;;;2.37;1.08;;;;;;;16.03;71.92;100773.18;461905;112;923056;-73
2021/06/04 03:49:00;;;;;;;1.61;0.93;;;;;;;16.04;71.91;100767.44;461936;112;933463;-74
2021/06/04 03:50:07;;;;;;;1.63;0.81;;;;;;;16.07;71.96;100772.44;461054;112;924191;-74
2021/06/04 03:51:15;;;;;;;1.31;0.90;;;;;;;16.10;71.86;100773.84;461095;112;923978;-74
2021/06/04 03:52:21;;;;;;;0.98;0.86;;;;;;;16.11;71.72;100772.77;460500;112;926569;-74
2021/06/04 03:53:26;;;;;;;3.14;1.24;;;;;;;16.13;71.69;100767.87;460518;112;924023;-73
2021/06/04 03:54:33;;;;;;;2.84;1.16;;;;;;;16.14;71.59;100767.62;457794;112;925684;-72
2021/06/04 03:55:40;;;;;;;1.30;0.97;;;;;;;16.14;71.55;100770.38;450941;114;922458;-73
2021/06/04 03:56:46;;;;;;;2.21;1.02;;;;;;;16.16;71.55;100770.95;451716;116;922412;-74
2021/06/04 03:57:52;;;;;;;2.49;1.11;;;;;;;16.17;71.35;100771.78;451418;116;922995;-74
2021/06/04 03:58:57;;;;;;;2.65;0.86;;;;;;;16.16;71.35;100773.70;450918;114;922953;-75
2021/06/04 04:00:01;;;;;;;1.01;0.91;;;;;;;16.17;71.28;100769.03;451249;116;930207;-75
2021/06/04 04:01:10;;;;;;;1.72;1.14;;;;;;;16.16;71.14;100770.95;451103;116;923299;-75
2021/06/04 04:02:18;;;;;;;1.81;1.00;;;;;;;16.16;71.09;100775.61;449769;115;923920;-75
2021/06/04 04:03:24;;;;;;;1.62;1.08;;;;;;;16.16;71.15;100781.11;450461;114;926206;-75
2021/06/04 04:04:29;;;;;;;1.31;0.96;;;;;;;16.16;71.15;100767.36;452225;115;924345;-73
2021/06/04 04:05:34;;;;;;;1.91;1.21;;;;;;;16.18;71.14;100771.55;451706;116;923461;-76
2021/06/04 04:06:41;;;;;;;0.99;0.92;;;;;;;16.20;71.17;100776.81;451802;116;933054;-74
2021/06/04 04:07:46;;;;;;;1.28;1.15;;;;;;;16.21;71.04;100776.54;451411;114;931672;-72
2021/06/04 04:08:50;;;;;;;1.92;1.21;;;;;;;16.20;70.88;100774.89;450911;116;923865;-70
2021/06/04 04:09:55;;;;;;;2.39;1.44;;;;;;;16.19;70.80;100775.97;451074;116;931746;-71
2021/06/04 04:11:00;;;;;;;3.77;1.43;;;;;;;16.19;70.84;100773.22;451530;116;925255;-69
2021/06/04 04:12:04;;;;;;;1.84;1.09;;;;;;;16.18;70.92;100774.30;449981;114;926027;-70
2021/06/04 04:13:10;;;;;;;3.08;1.09;;;;;;;16.19;70.90;100770.47;450247;116;924035;-72
2021/06/04 04:14:14;;;;;;;3.02;1.15;;;;;;;16.19;70.86;100770.47;450720;116;922959;-69
2021/06/04 04:15:18;;;;;;;1.19;1.09;;;;;;;16.18;70.92;100768.80;451289;116;922957;-71
2021/06/04 04:16:23;;;;;;;2.43;1.71;;;;;;;16.19;70.83;100769.63;450279;114;932597;-69
2021/06/04 04:17:29;;;;;;;2.28;1.10;;;;;;;16.19;70.91;100773.22;451392;116;923201;-70
2021/06/04 04:18:33;;;;;;;1.58;1.19;;;;;;;16.20;70.98;100777.65;451717;114;922485;-69
2021/06/04 04:19:36;;;;;;;3.22;1.05;;;;;;;16.21;70.93;100773.79;452112;116;923576;-71
2021/06/04 04:20:45;;;;;;;4.10;3.84;;;;;;;16.22;70.89;100769.13;450564;115;931735;-67
2021/06/04 04:21:51;;;;;;;4.71;4.37;;;;;;;16.23;70.91;100777.14;450107;116;922422;-70
2021/06/04 04:22:55;;;;;;;2.06;1.87;;;;;;;16.22;70.93;100778.22;450529;116;923180;-70
2021/06/04 04:24:04;;;;;;;1.68;1.51;;;;;;;16.24;70.84;100773.31;450418;114;922877;-69
2021/06/04 04:25:09;;;;;;;1.86;1.36;;;;;;;16.24;70.77;100780.73;450987;114;923342;-69
2021/06/04 04:26:17;;;;;;;2.29;2.02;;;;;;;16.24;70.73;100783.48;451459;116;924577;-71
2021/06/04 04:27:21;;;;;;;2.34;2.17;;;;;;;16.23;70.81;100785.39;453011;116;922359;-69
2021/06/04 04:28:28;;;;;;;1.72;1.50;;;;;;;16.24;70.83;100781.56;451781;116;925370;-69
2021/06/04 04:29:33;;;;;;;2.77;2.55;;;;;;;16.26;70.75;100781.33;452390;114;930264;-69
2021/06/04 04:30:37;;;;;;;3.15;2.83;;;;;;;16.27;70.79;100788.47;452195;116;922565;-71
2021/06/04 04:31:45;;;;;;;1.83;1.67;;;;;;;16.28;70.83;100782.73;452231;116;922534;-72
2021/06/04 04:32:51;;;;;;;2.17;1.52;;;;;;;16.30;70.84;100792.66;451420;114;930520;-70
2021/06/04 04:33:57;;;;;;;1.38;1.23;;;;;;;16.32;70.78;100785.00;450599;116;924017;-70
2021/06/04 04:35:01;;;;;;;1.40;1.28;;;;;;;16.33;70.74;100794.91;443379;118;923397;-71
2021/06/04 04:36:06;;;;;;;3.01;1.62;;;;;;;16.34;70.77;100791.08;443392;119;922412;-72
2021/06/04 04:37:11;;;;;;;1.87;1.46;;;;;;;16.34;70.79;100794.66;436604;118;923019;-71
2021/06/04 04:38:20;;;;;;;2.19;1.44;;;;;;;16.35;70.71;100793.59;445148;116;923171;-71
2021/06/04 04:39:27;;;;;;;2.96;1.26;;;;;;;16.35;70.56;100790.00;451490;114;923046;-70
2021/06/04 04:40:37;;;;;;;2.07;1.37;;;;;;;16.34;70.50;100794.66;450792;116;922486;-73
2021/06/04 04:41:41;;;;;;;2.28;1.36;;;;;;;16.32;70.40;100793.27;450746;114;923161;-70
2021/06/04 04:42:45;;;;;;;1.84;1.16;;;;;;;16.30;70.40;100789.91;450105;114;924125;-72
2021/06/04 04:43:52;;;;;;;3.11;1.20;;;;;;;16.28;70.39;100796.49;450620;116;922845;-73
2021/06/04 04:44:55;;;;;;;2.57;1.42;;;;;;;16.29;70.44;100797.33;450539;116;924087;-73
2021/06/04 04:46:01;;;;;;;1.95;1.37;;;;;;;16.28;70.38;100799.23;448733;116;926451;-72
2021/06/04 04:47:08;;;;;;;1.40;1.30;;;;;;;16.29;70.43;100802.83;451070;115;930646;-72
2021/06/04 04:48:12;;;;;;;1.49;1.22;;;;;;;16.27;70.49;100800.31;450864;116;922885;-72
2021/06/04 04:49:15;;;;;;;1.95;1.29;;;;;;;16.29;70.63;100802.83;452201;114;922753;-72
2021/06/04 04:50:21;;;;;;;5.59;1.44;;;;;;;16.30;70.73;100803.67;451714;114;922478;-72
2021/06/04 04:51:27;;;;;;;2.53;1.35;;;;;;;16.31;70.77;100799.84;451538;114;922611;-71
2021/06/04 04:52:31;;;;;;;2.03;1.26;;;;;;;16.32;70.85;100801.52;452761;116;922614;-73
2021/06/04 04:53:36;;;;;;;2.51;1.32;;;;;;;16.33;70.87;100812.25;451171;116;922508;-73
2021/06/04 04:54:52;;;;;;;1.87;1.39;;;;;;;16.34;70.90;100800.17;452544;114;922551;-72
2021/06/04 04:55:56;;;;;;;3.36;1.39;;;;;;;16.36;70.97;100802.69;460778;112;922954;-72
2021/06/04 04:57:01;;;;;;;2.25;1.54;;;;;;;16.37;71.02;100802.45;461407;112;922471;-71
2021/06/04 04:58:05;;;;;;;5.71;5.08;;;;;;;16.38;71.00;100806.84;461958;112;922703;-71
2021/06/04 04:59:10;;;;;;;4.97;3.22;;;;;;;16.39;70.94;100802.17;460817;112;922604;-72
2021/06/04 05:00:18;;;;;;;4.06;2.27;;;;;;;16.40;70.87;100803.84;460475;112;923100;-70
2021/06/04 05:01:22;;;;;;;3.02;1.17;;;;;;;16.42;70.81;100812.70;462319;112;922467;-72
2021/06/04 05:02:26;;;;;;;3.59;1.31;;;;;;;16.42;70.76;100804.45;462126;112;922580;-71
2021/06/04 05:03:30;;;;;;;3.33;1.29;;;;;;;16.42;70.74;100804.45;460625;112;922734;-73
2021/06/04 05:04:34;;;;;;;2.32;1.41;;;;;;;16.43;70.80;100808.88;461041;112;930166;-69
2021/06/04 05:05:39;;;;;;;3.29;1.35;;;;;;;16.44;70.79;100810.52;460713;112;922450;-73
2021/06/04 05:06:45;;;;;;;1.54;1.22;;;;;;;16.43;70.74;100812.44;462030;112;926496;-69
2021/06/04 05:07:49;;;;;;;2.13;1.46;;;;;;;16.44;70.71;100816.02;461546;112;923966;-72
2021/06/04 05:08:53;;;;;;;3.41;1.21;;;;;;;16.43;70.65;100812.44;461955;112;930193;-71
2021/06/04 05:09:57;;;;;;;2.05;1.39;;;;;;;16.41;70.62;100806.36;461674;112;924505;-70
2021/06/04 05:11:03;;;;;;;3.39;1.54;;;;;;;16.39;70.77;100805.77;459244;114;924923;-70
2021/06/04 05:12:09;;;;;;;1.58;1.38;;;;;;;16.40;70.84;100806.60;463140;112;925258;-69
2021/06/04 05:13:14;;;;;;;2.14;1.22;;;;;;;16.39;70.87;100802.17;462331;112;924520;-68
2021/06/04 05:14:18;;;;;;;1.64;1.39;;;;;;;16.40;70.90;100803.84;461087;112;923734;-70
2021/06/04 05:15:26;;;;;;;2.32;1.24;;;;;;;16.40;70.86;100810.19;461660;112;923960;-70
2021/06/04 05:16:30;;;;;;;1.27;1.07;;;;;;;16.42;70.84;100810.79;463676;112;922481;-72